createdAt,value
2023-04-25T00:00:27.125Z,35.65
2023-04-25T00:02:55.215Z,41.13
2023-04-25T00:05:26.557Z,35.13
2023-04-25T00:07:54.895Z,38.47
2023-04-25T00:10:23.333Z,43.25
2023-04-25T00:12:51.027Z,47.97
2023-04-25T00:15:19.022Z,43.55
2023-04-25T00:17:47.262Z,47.80
2023-04-25T00:20:15.069Z,41.38
2023-04-25T00:22:42.738Z,54.10
2023-04-25T00:25:10.516Z,47.85
2023-04-25T00:27:40.398Z,45.15
2023-04-25T00:30:10.661Z,39.95
2023-04-25T00:32:39.045Z,39.55
2023-04-25T00:35:09.077Z,109.18
2023-04-25T00:37:37.096Z,63.42
2023-04-25T00:40:07.477Z,106.78
2023-04-25T00:42:38.278Z,50.38
2023-04-25T00:45:10.436Z,54.55
2023-04-25T00:47:38.921Z,49.65
2023-04-25T00:50:07.764Z,47.75
2023-04-25T00:52:35.584Z,42.35
2023-04-25T00:55:03.335Z,44.55
2023-04-25T00:57:31.414Z,48.95
2023-04-25T00:59:59.206Z,43.47
2023-04-25T01:02:27.109Z,48.33
2023-04-25T01:04:55.756Z,47.75
2023-04-25T01:07:23.990Z,53.33
2023-04-25T01:09:52.896Z,43.20
2023-04-25T01:12:20.638Z,43.17
2023-04-25T01:14:48.452Z,48.65
2023-04-25T01:17:16.500Z,48.10
2023-04-25T01:19:49.512Z,49.75
2023-04-25T01:22:18.215Z,47.28
2023-04-25T01:24:46.403Z,40.15
2023-04-25T01:27:14.397Z,40.95
2023-04-25T01:29:42.776Z,39.60
2023-04-25T01:32:10.910Z,45.50
2023-04-25T01:34:39.236Z,44.85
2023-04-25T01:37:07.268Z,37.50
2023-04-25T01:39:35.625Z,46.92
2023-04-25T01:42:03.785Z,34.28
2023-04-25T01:44:32.316Z,36.85
2023-04-25T01:46:59.914Z,40.83
2023-04-25T01:49:27.753Z,52.28
2023-04-25T01:51:55.645Z,39.60
2023-04-25T01:54:23.300Z,39.40
2023-04-25T01:56:52.152Z,43.88
2023-04-25T01:59:23.426Z,31.13
2023-04-25T02:02:05.985Z,29.55
2023-04-25T02:04:35.683Z,33.65
2023-04-25T02:07:05.321Z,29.20
2023-04-25T02:09:45.497Z,33.55
2023-04-25T02:12:15.067Z,36.35
2023-04-25T02:15:16.051Z,28.88
2023-04-25T02:17:50.935Z,172.43
2023-04-25T02:20:22.881Z,84.25
2023-04-25T02:22:53.231Z,116.80
2023-04-25T02:25:22.203Z,48.53
2023-04-25T02:27:50.499Z,49.67
2023-04-25T02:30:19.126Z,58.92
2023-04-25T02:32:48.125Z,46.03
2023-04-25T02:35:15.914Z,42.95
2023-04-25T02:37:44.106Z,50.22
2023-04-25T02:40:12.222Z,39.58
2023-04-25T02:42:40.483Z,38.65
2023-04-25T02:45:10.094Z,39.40
2023-04-25T02:47:38.265Z,39.65
2023-04-25T02:50:06.914Z,39.92
2023-04-25T02:52:35.599Z,43.10
2023-04-25T02:55:12.023Z,46.42
2023-04-25T02:57:42.620Z,45.20
2023-04-25T03:00:15.622Z,51.08
2023-04-25T03:02:44.643Z,55.08
2023-04-25T03:05:12.287Z,124.75
2023-04-25T03:07:45.004Z,80.65
2023-04-25T03:10:15.435Z,75.03
2023-04-25T03:12:44.841Z,66.20
2023-04-25T03:15:13.746Z,77.80
2023-04-25T03:17:44.144Z,95.03
2023-04-25T03:20:13.135Z,93.28
2023-04-25T03:22:41.412Z,63.10
2023-04-25T03:25:09.793Z,60.67
2023-04-25T03:27:39.413Z,59.10
2023-04-25T03:30:09.316Z,80.13
2023-04-25T03:32:40.812Z,67.68
2023-04-25T03:35:11.289Z,55.00
2023-04-25T03:37:42.361Z,54.88
2023-04-25T03:40:12.737Z,40.27
2023-04-25T03:43:02.647Z,39.28
2023-04-25T03:45:31.128Z,42.88
2023-04-25T03:47:59.446Z,46.25
2023-04-25T03:50:31.630Z,47.20
2023-04-25T03:53:02.021Z,42.28
2023-04-25T03:55:36.480Z,44.42
2023-04-25T03:58:04.922Z,42.38
2023-04-25T04:00:33.186Z,39.42
2023-04-25T04:03:02.183Z,39.75
2023-04-25T04:05:31.358Z,39.33
2023-04-25T04:07:59.734Z,38.05
2023-04-25T04:10:28.069Z,34.53
2023-04-25T04:12:56.904Z,38.78
2023-04-25T04:15:24.879Z,37.03
2023-04-25T04:17:52.686Z,35.90
2023-04-25T04:20:20.348Z,37.88
2023-04-25T04:22:48.270Z,42.83
2023-04-25T04:25:17.543Z,45.30
2023-04-25T04:28:04.476Z,37.15
2023-04-25T04:30:42.742Z,58.85
2023-04-25T04:33:10.791Z,44.20
2023-04-25T04:35:39.557Z,51.45
2023-04-25T04:38:07.933Z,47.95
2023-04-25T04:40:37.361Z,33.45
2023-04-25T04:43:20.040Z,41.70
2023-04-25T04:46:04.795Z,36.17
2023-04-25T04:49:01.950Z,44.92
2023-04-25T04:51:48.245Z,47.78
2023-04-25T04:54:36.859Z,43.83
2023-04-25T04:57:34.191Z,43.83
2023-04-25T05:00:23.139Z,71.32
2023-04-25T05:03:13.597Z,51.40
2023-04-25T05:06:04.698Z,56.42
2023-04-25T05:08:48.713Z,66.55
2023-04-25T05:11:50.434Z,61.05
2023-04-25T05:14:30.105Z,59.45
2023-04-25T06:04:57.571Z,69.82
2023-04-25T06:07:27.241Z,83.80
2023-04-25T06:09:56.435Z,75.00
2023-04-25T06:12:24.159Z,97.97
2023-04-25T06:14:53.893Z,100.05
2023-04-25T06:17:21.752Z,99.70
2023-04-25T06:19:52.223Z,111.60
2023-04-25T06:22:20.519Z,125.35
2023-04-25T06:24:48.496Z,130.50
2023-04-25T06:27:17.182Z,130.75
2023-04-25T06:29:44.991Z,133.70
2023-04-25T06:32:12.755Z,123.05
2023-04-25T06:34:40.967Z,125.25
2023-04-25T06:37:08.881Z,146.98
2023-04-25T06:39:40.581Z,132.90
2023-04-25T06:42:09.603Z,164.43
2023-04-25T06:44:57.580Z,136.82
2023-04-25T06:47:26.588Z,158.20
2023-04-25T06:49:54.590Z,146.18
2023-04-25T06:52:22.820Z,125.28
2023-04-25T06:54:52.928Z,144.20
2023-04-25T06:57:38.617Z,145.35
2023-04-25T07:00:26.539Z,136.75
2023-04-25T07:02:55.212Z,131.60
2023-04-25T07:05:23.947Z,128.57
2023-04-25T07:07:54.724Z,105.03
2023-04-25T07:10:29.566Z,92.70
2023-04-25T07:12:59.346Z,90.22
2023-04-25T07:15:28.176Z,82.07
2023-04-25T07:17:56.461Z,75.28
2023-04-25T07:20:25.562Z,82.65
2023-04-25T07:22:53.689Z,66.38
2023-04-25T07:25:21.951Z,60.72
2023-04-25T07:27:50.958Z,53.15
2023-04-25T07:30:21.035Z,38.58
2023-04-25T07:32:49.040Z,36.00
2023-04-25T07:35:17.166Z,28.38
2023-04-25T07:37:46.159Z,29.98
2023-04-25T07:40:18.042Z,39.75
2023-04-25T07:42:50.202Z,30.08
2023-04-25T07:45:24.837Z,44.42
2023-04-25T07:47:53.298Z,42.75
2023-04-25T07:50:22.141Z,45.30
2023-04-25T07:52:50.235Z,24.52
2023-04-25T07:55:28.055Z,21.88
2023-04-25T07:58:04.778Z,26.08
2023-04-25T08:00:34.497Z,25.40
2023-04-25T08:03:22.887Z,28.52
2023-04-25T08:05:51.603Z,28.58
2023-04-25T08:08:22.019Z,26.50
2023-04-25T08:10:50.299Z,30.70
2023-04-25T08:13:19.267Z,35.10
2023-04-25T08:15:47.240Z,38.17
2023-04-25T08:18:17.031Z,28.20
2023-04-25T08:23:15.855Z,29.05
2023-04-25T08:26:01.864Z,29.95
2023-04-25T08:28:31.455Z,36.20
2023-04-25T08:31:01.792Z,36.83
2023-04-25T08:33:36.352Z,22.75
2023-04-25T08:36:38.433Z,24.35
2023-04-25T08:39:17.698Z,13.02
2023-04-25T08:42:00.118Z,10.43
2023-04-25T08:44:28.385Z,11.70
2023-04-25T08:46:56.383Z,9.02
2023-04-25T08:49:29.019Z,10.88
2023-04-25T08:51:57.104Z,15.68
2023-04-25T08:56:59.891Z,10.15
2023-04-25T08:59:29.430Z,9.23
2023-04-25T09:01:57.373Z,9.75
2023-04-25T09:04:25.914Z,13.00
2023-04-25T09:06:53.809Z,8.93
2023-04-25T09:09:22.974Z,7.00
2023-04-25T09:11:50.672Z,9.93
2023-04-25T09:14:33.374Z,7.55
2023-04-25T09:17:15.378Z,7.45
2023-04-25T11:31:22.822Z,9.43
2023-04-25T11:33:50.697Z,9.93
2023-04-25T11:36:18.422Z,13.60
2023-04-25T11:38:46.113Z,12.30
2023-04-25T11:41:13.725Z,10.70
2023-04-25T11:43:43.378Z,10.10
2023-04-25T11:46:11.468Z,9.75
2023-04-25T11:48:42.508Z,7.80
2023-04-25T11:51:10.107Z,14.70
2023-04-25T11:53:37.761Z,9.25
2023-04-25T11:56:11.024Z,14.75
2023-04-25T11:58:58.126Z,12.75
2023-04-25T12:01:37.677Z,11.25
2023-04-25T12:04:19.595Z,10.68
2023-04-25T12:06:49.146Z,11.80
2023-04-25T12:09:22.611Z,10.90
2023-04-25T12:11:59.172Z,10.13
2023-04-25T12:14:33.519Z,10.45
2023-04-25T12:17:03.193Z,9.85
2023-04-25T12:19:35.206Z,11.25
2023-04-25T12:22:04.239Z,11.38
2023-04-25T12:24:36.313Z,13.82
2023-04-25T12:27:07.227Z,11.70
2023-04-25T12:29:48.739Z,10.90
2023-04-25T12:32:18.203Z,10.43
2023-04-25T12:34:46.194Z,13.35
2023-04-25T12:52:35.810Z,8.20
2023-04-25T12:55:03.476Z,12.52
2023-04-25T12:57:30.930Z,7.60
2023-04-25T13:00:00.239Z,8.70
2023-04-25T13:02:27.994Z,9.32
2023-04-25T13:04:55.915Z,8.88
2023-04-25T13:07:23.370Z,6.38
2023-04-25T13:09:50.912Z,8.65
2023-04-25T13:12:18.495Z,7.10
2023-04-25T13:14:45.970Z,5.60
2023-04-25T13:17:13.465Z,5.32
2023-04-25T13:19:41.043Z,9.13
2023-04-25T13:22:08.733Z,5.95
2023-04-25T13:24:36.569Z,4.88
2023-04-25T13:27:04.417Z,6.32
2023-04-25T13:29:32.135Z,6.65
2023-04-25T13:31:59.605Z,6.68
2023-04-25T13:34:27.156Z,8.98
2023-04-25T13:36:54.589Z,10.20
2023-04-25T13:39:22.124Z,8.07
2023-04-25T13:41:49.647Z,9.05
2023-04-25T13:44:17.496Z,6.68
2023-04-25T13:46:47.487Z,7.80
2023-04-25T13:49:15.430Z,6.95
2023-04-25T13:51:43.630Z,9.15
2023-04-25T13:54:11.548Z,7.90
2023-04-25T13:56:39.599Z,9.70
2023-04-25T13:59:07.124Z,9.20
2023-04-25T14:01:36.690Z,8.48
2023-04-25T14:04:07.242Z,9.82
2023-04-25T14:06:34.857Z,7.15
2023-04-25T14:09:02.461Z,8.30
2023-04-25T14:11:31.549Z,7.85
2023-04-25T14:13:59.004Z,8.77
2023-04-25T14:16:26.580Z,13.68
2023-04-25T14:18:55.588Z,9.77
2023-04-25T14:21:23.006Z,10.55
2023-04-25T14:23:50.755Z,6.28
2023-04-25T14:26:18.347Z,5.75
2023-04-25T14:28:45.835Z,6.28
2023-04-25T14:31:13.278Z,5.70
2023-04-25T14:33:43.688Z,9.40
2023-04-25T14:36:12.147Z,7.10
2023-04-25T14:38:39.651Z,7.38
2023-04-25T14:41:07.242Z,9.82
2023-04-25T14:43:34.934Z,8.60
2023-04-25T14:46:03.196Z,10.80
2023-04-25T14:48:31.657Z,6.20
2023-04-25T14:50:59.200Z,6.85
2023-04-25T14:53:26.760Z,7.75
2023-04-25T14:55:54.937Z,9.95
2023-04-25T14:58:22.512Z,8.55
2023-04-25T15:00:50.019Z,8.60
2023-04-25T15:03:19.287Z,10.55
2023-04-25T15:05:46.985Z,6.68
2023-04-25T15:08:14.968Z,7.53
2023-04-25T15:10:42.528Z,7.35
2023-04-25T15:13:11.552Z,7.40
2023-04-25T15:15:39.137Z,9.98
2023-04-25T15:18:06.678Z,5.57
2023-04-25T15:20:35.280Z,6.47
2023-04-25T15:23:04.610Z,6.05
2023-04-25T15:25:32.909Z,6.45
2023-04-25T15:28:01.053Z,3.92
2023-04-25T15:30:28.715Z,9.15
2023-04-25T15:32:56.395Z,5.05
2023-04-25T15:35:23.893Z,13.07
2023-04-25T15:37:52.338Z,5.13
2023-04-25T15:40:19.826Z,11.13
2023-04-25T15:42:49.013Z,10.23
2023-04-25T15:45:17.987Z,13.52
2023-04-25T15:47:45.606Z,15.93
2023-04-25T15:50:13.477Z,17.67
2023-04-25T15:52:42.208Z,20.98
2023-04-25T15:55:10.143Z,12.45
2023-04-25T15:57:37.799Z,12.98
2023-04-25T16:00:11.143Z,17.25
2023-04-25T16:02:46.074Z,11.40
2023-04-25T16:05:14.841Z,17.85
2023-04-25T16:07:43.993Z,9.80
2023-04-25T16:10:11.859Z,13.18
2023-04-25T16:12:40.049Z,20.10
2023-04-25T16:15:08.007Z,19.13
2023-04-25T16:17:35.733Z,14.13
2023-04-25T16:20:09.903Z,12.07
2023-04-25T16:22:39.355Z,12.93
2023-04-25T16:25:07.403Z,15.50
2023-04-25T16:27:35.149Z,9.93
2023-04-25T16:30:02.903Z,12.95
2023-04-25T16:32:30.906Z,10.35
2023-04-25T16:34:58.911Z,11.30
2023-04-25T16:37:26.614Z,10.57
2023-04-25T16:39:54.211Z,18.17
2023-04-25T16:42:21.831Z,21.70
2023-04-25T16:44:49.304Z,15.95
2023-04-25T16:47:20.087Z,15.88
2023-04-25T16:49:48.200Z,12.50
2023-04-25T16:52:16.289Z,21.48
2023-04-25T16:54:43.974Z,26.23
2023-04-25T16:57:11.900Z,17.63
2023-04-25T16:59:39.681Z,24.40
2023-04-25T17:02:08.913Z,35.15
2023-04-25T17:04:36.972Z,33.47
2023-04-25T17:07:04.500Z,34.97
2023-04-25T17:09:33.017Z,39.75
2023-04-25T17:12:03.213Z,38.75
2023-04-25T17:14:32.676Z,48.00
2023-04-25T17:17:00.591Z,58.65
2023-04-25T17:19:28.817Z,62.90
2023-04-25T17:21:56.477Z,76.03
2023-04-25T17:24:24.547Z,66.78
2023-04-25T17:26:51.986Z,59.72
2023-04-25T17:29:19.836Z,57.78
2023-04-25T17:31:47.405Z,48.60
2023-04-25T17:34:18.175Z,32.95
2023-04-25T17:36:47.925Z,28.65
2023-04-25T17:39:17.730Z,29.40
2023-04-25T17:41:46.032Z,24.13
2023-04-25T17:44:13.980Z,22.00
2023-04-25T17:46:41.718Z,24.90
2023-04-25T17:49:10.807Z,22.17
2023-04-25T17:51:39.294Z,25.33
2023-04-25T17:54:07.075Z,25.02
2023-04-25T17:56:39.385Z,31.15
2023-04-25T17:59:07.708Z,28.35
2023-04-25T18:01:36.537Z,24.70
2023-04-25T18:04:05.495Z,27.00
2023-04-25T18:06:34.160Z,20.65
2023-04-25T18:09:03.106Z,18.23
2023-04-25T18:11:32.594Z,23.48
2023-04-25T18:14:02.070Z,23.50
2023-04-25T18:16:31.632Z,16.83
2023-04-25T18:19:13.085Z,17.65
2023-04-25T18:24:14.156Z,23.80
2023-04-25T18:26:42.382Z,20.10
2023-04-25T18:29:12.092Z,19.45
2023-04-25T18:31:42.785Z,20.63
2023-04-25T18:34:10.976Z,18.73
2023-04-25T18:36:40.559Z,18.48
2023-04-25T18:39:21.547Z,16.85
2023-04-25T18:41:58.004Z,14.18
2023-04-25T18:44:28.409Z,19.77
2023-04-25T18:46:56.580Z,19.30
2023-04-25T18:49:24.253Z,19.00
2023-04-25T18:51:52.706Z,14.30
2023-04-25T18:54:21.564Z,18.38
2023-04-25T18:56:50.610Z,17.25
2023-04-25T18:59:18.903Z,19.77
2023-04-25T19:01:47.361Z,22.55
2023-04-25T19:04:15.387Z,19.13
2023-04-25T19:06:44.809Z,25.73
2023-04-25T19:09:13.620Z,31.08
2023-04-25T19:11:41.607Z,26.02
2023-04-25T19:14:09.236Z,29.88
2023-04-25T19:16:41.986Z,28.90
2023-04-25T19:19:11.102Z,30.70
2023-04-25T19:21:40.293Z,22.45
2023-04-25T19:24:09.078Z,29.77
2023-04-25T19:26:37.821Z,23.95
2023-04-25T19:29:06.753Z,28.13
2023-04-25T19:31:36.187Z,23.02
2023-04-25T19:34:08.130Z,19.10
2023-04-25T19:36:37.938Z,22.52
2023-04-25T19:39:07.678Z,26.55
2023-04-25T19:41:36.581Z,24.48
2023-04-25T19:44:08.703Z,18.65
2023-04-25T19:46:37.768Z,22.08
2023-04-25T19:49:09.102Z,15.75
2023-04-25T19:51:37.630Z,22.77
2023-04-25T19:54:05.613Z,24.15
2023-04-25T19:56:33.663Z,20.58
2023-04-25T19:59:01.477Z,19.83
2023-04-25T20:01:29.709Z,16.58
2023-04-25T20:03:57.323Z,22.70
2023-04-25T20:06:25.256Z,17.75
2023-04-25T20:08:53.663Z,19.80
2023-04-25T20:11:22.062Z,20.35
2023-04-25T20:13:50.454Z,15.70
2023-04-25T20:16:20.560Z,29.90
2023-04-25T20:18:49.204Z,19.23
2023-04-25T20:21:18.194Z,18.50
2023-04-25T20:23:46.394Z,20.27
2023-04-25T20:26:14.689Z,16.73
2023-04-25T20:28:42.264Z,15.70
2023-04-25T20:31:11.242Z,20.83
2023-04-25T20:33:39.591Z,17.27
2023-04-25T20:36:07.881Z,15.82
2023-04-25T20:38:35.732Z,25.88
2023-04-25T20:41:04.036Z,24.13
2023-04-25T20:43:33.977Z,22.02
2023-04-25T20:46:02.052Z,20.02
2023-04-25T20:48:30.418Z,49.00
2023-04-25T20:51:00.892Z,35.22
2023-04-25T20:53:29.212Z,45.22
2023-04-25T20:55:58.886Z,20.63
2023-04-25T20:58:27.344Z,41.60
2023-04-25T21:00:56.677Z,22.45
2023-04-25T21:03:26.647Z,26.20
2023-04-25T21:05:54.560Z,28.95
2023-04-25T21:08:22.727Z,26.67
2023-04-25T21:10:52.342Z,23.45
2023-04-25T21:13:22.962Z,21.70
2023-04-25T21:15:50.660Z,19.98
2023-04-25T21:18:18.316Z,27.95
2023-04-25T21:20:46.520Z,26.40
2023-04-25T21:23:14.368Z,21.70
2023-04-25T21:25:43.311Z,25.42
2023-04-25T21:28:13.186Z,45.38
2023-04-25T21:30:42.305Z,32.58
2023-04-25T21:33:10.294Z,57.60
2023-04-25T21:35:38.891Z,39.10
2023-04-25T21:38:07.852Z,34.75
2023-04-25T21:40:35.949Z,35.63
2023-04-25T21:43:03.784Z,38.08
2023-04-25T21:45:32.062Z,41.83
2023-04-25T21:48:00.174Z,60.55
2023-04-25T21:50:28.235Z,35.97
2023-04-25T21:52:59.088Z,25.65
2023-04-25T21:55:27.440Z,36.83
2023-04-25T21:57:55.249Z,30.13
2023-04-25T22:00:28.525Z,38.35
2023-04-25T22:02:58.089Z,62.55
2023-04-25T22:05:27.789Z,45.55
2023-04-25T22:07:57.308Z,34.95
2023-04-25T22:10:25.403Z,50.72
2023-04-25T22:12:53.197Z,47.72
2023-04-25T22:15:24.318Z,31.83
2023-04-25T22:17:52.743Z,46.78
2023-04-25T22:20:24.350Z,38.13
2023-04-25T22:25:21.341Z,29.70
2023-04-25T22:27:49.631Z,28.88
2023-04-25T22:30:19.711Z,25.83
2023-04-25T22:32:48.849Z,29.00
2023-04-25T22:35:16.775Z,25.02
2023-04-25T22:37:45.175Z,24.27
2023-04-25T22:40:13.455Z,26.67
2023-04-25T22:42:42.497Z,76.00
2023-04-25T22:45:11.190Z,63.10
2023-04-25T22:47:39.972Z,48.20
2023-04-25T22:50:12.595Z,41.72
2023-04-25T22:52:42.688Z,114.35
2023-04-25T22:55:12.531Z,141.75
2023-04-25T22:57:40.732Z,91.45
2023-04-25T23:00:16.171Z,118.40
2023-04-25T23:02:46.431Z,143.95
2023-04-25T23:05:17.027Z,63.88
2023-04-25T23:07:47.535Z,73.30
2023-04-25T23:10:15.721Z,84.27
2023-04-25T23:12:44.215Z,61.53
2023-04-25T23:15:13.517Z,63.17
2023-04-25T23:17:42.379Z,52.28
2023-04-25T23:20:11.509Z,34.05
2023-04-25T23:22:39.792Z,28.58
2023-04-25T23:25:10.640Z,21.25
2023-04-25T23:27:39.316Z,27.35
2023-04-25T23:30:07.540Z,38.55
2023-04-25T23:32:37.383Z,33.92
2023-04-25T23:35:05.775Z,21.13
2023-04-25T23:37:35.155Z,36.13
2023-04-25T23:40:13.290Z,24.70
2023-04-25T23:42:42.907Z,28.35
2023-04-25T23:45:13.055Z,24.15
2023-04-25T23:47:41.834Z,66.10
2023-04-25T23:50:11.214Z,37.78
2023-04-25T23:52:39.593Z,32.22
2023-04-25T23:55:07.435Z,27.63
2023-04-25T23:57:36.673Z,67.47
